General Aviation Weather

Text Reports

Enter one or more of the following location identifiers separated by a space:

Zip Code, Four-Character ICAO or Three-Character IATA airport codes.

METAR - Aviation Routine Weather Report
EKVG - Vagar,
Updated at 5:20 PM GMT on May 22, 2015 (6:20 PM WEST):
METAR EKVG 221720Z AUTO 31019G30KT 9999NDV BKN013/// 07/04 Q1017
TAF - Terminal Area Forecast
EKVG - Vagar,
Updated at 5:20 PM GMT on May 22, 2015 (6:20 PM WEST):
No TAF is currently available for this location.
Decoded:
No decoded TAF is available.
PIREP - Pilot Weather Report
EKVG - Vagar,
Updated at 5:20 PM GMT on May 22, 2015 (6:20 PM WEST):
No PIREP is currently available for this location.
AIRMET - Airmens Meteorological Information
EKVG - Vagar,
Updated at 5:20 PM GMT on May 22, 2015 (6:20 PM WEST):
No AIRMET is currently available for this location.
SIGMET - Significant Meteorological Information
EKVG - Vagar,
Updated at 5:20 PM GMT on May 22, 2015 (6:20 PM WEST):
No SIGMET is currently available for this location.
NOTAM - Notice to Airmen
EKVG - Vagar,
Updated at 5:20 PM GMT on May 22, 2015 (6:20 PM WEST):
No NOTAM is currently available for this location.
Forecast Area
EKVG - Vagar,
Updated at 5:20 PM GMT on May 22, 2015 (6:20 PM WEST):
No NOTAM is currently available for this location.
Aviation Weather Maps